Ashwood, Mississippi
Current Conditions -  °F | °C
As of 11:35 AM on Monday 24 Nov 2014 (Local Time) from KHEZ Reporting Station
Clear Clear  
Wind Chill: 59°   Ceiling: Unl
Heat Index: 59°   Visibility: 10mi
Dew Point: 39°   Wind: 13mph
Humidity: 48%   Direction: 330°NNW
Pressure: 29.97"   Gusts: 18mph
Location:  31.1784°N, 91.3525°W
Report Text: KHEZ 241735Z AUTO 33011G16KT 10SM CLR 15/04 A2997 RMK AO1
Loading
Personal Weather Stations






























Interactive Weather Map New forecast layout! Learn more

10-Day Weather Forecast

Advertisements
Track Severe Weather on mobile